Gwynn Oak, Maryland
Current Conditions -  °F | °C
As of 1:54 PM on Thursday 27 Nov 2014 (Local Time) from KBWI Reporting Station
Broken Clouds Broken Clouds  
Wind Chill: 38°   Ceiling: 6000
Heat Index: 44°   Visibility: 10mi
Dew Point: 28°   Wind: 12mph
Humidity: 53%   Direction: 320°NW
Pressure: 30.03"   Gusts: NA
Location:  39.32°N, 76.73°W
Report Text: KBWI 271854Z 32010KT 10SM FEW037 BKN060 BKN250 07/M02 A3003 RMK AO2 SLP169 T00671022
Loading
Personal Weather Stations






























Interactive Weather Map New forecast layout! Learn more

10-Day Weather Forecast

Advertisements
Track Severe Weather on mobile